createdAt,value
2022-09-14T00:01:25.887Z,8.83
2022-09-14T00:04:01.896Z,8.97
2022-09-14T00:06:29.360Z,7.37
2022-09-14T00:08:58.120Z,8.50
2022-09-14T00:11:26.936Z,9.73
2022-09-14T00:13:54.457Z,8.37
2022-09-14T00:16:24.122Z,9.27
2022-09-14T00:19:00.665Z,8.83
2022-09-14T00:21:29.231Z,8.67
2022-09-14T00:23:55.839Z,9.00
2022-09-14T00:26:23.811Z,8.17
2022-09-14T00:28:53.233Z,8.23
2022-09-14T00:31:21.118Z,8.80
2022-09-14T00:33:49.236Z,7.77
2022-09-14T00:36:26.225Z,8.30
2022-09-14T00:38:57.243Z,8.37
2022-09-14T00:41:31.800Z,8.43
2022-09-14T00:44:26.469Z,8.57
2022-09-14T00:47:00.450Z,11.20
2022-09-14T00:49:32.669Z,9.90
2022-09-14T00:52:08.609Z,10.27
2022-09-14T00:54:41.019Z,11.30
2022-09-14T00:57:08.328Z,9.13
2022-09-14T00:59:41.984Z,10.83
2022-09-14T01:02:11.142Z,13.90
2022-09-14T01:04:38.368Z,13.70
2022-09-14T01:07:26.564Z,13.90
2022-09-14T01:10:01.741Z,12.73
2022-09-14T01:12:46.778Z,9.80
2022-09-14T01:15:23.586Z,12.40
2022-09-14T01:18:18.450Z,12.33
2022-09-14T01:21:03.948Z,11.63
2022-09-14T01:23:47.482Z,11.60
2022-09-14T01:26:46.472Z,12.47
2022-09-14T01:29:17.892Z,12.17
2022-09-14T01:32:12.688Z,14.70
2022-09-14T01:35:05.281Z,14.90
2022-09-14T01:37:35.374Z,12.80
2022-09-14T01:40:17.712Z,14.67
2022-09-14T01:42:49.023Z,14.30
2022-09-14T01:45:19.025Z,15.53
2022-09-14T01:47:51.185Z,14.93
2022-09-14T01:50:24.354Z,13.67
2022-09-14T01:52:58.200Z,14.30
2022-09-14T01:55:33.924Z,12.87
2022-09-14T01:58:10.377Z,13.30
2022-09-14T02:00:41.171Z,13.80
2022-09-14T02:03:19.254Z,12.60
2022-09-14T02:05:56.710Z,12.43
2022-09-14T02:08:27.545Z,12.83
2022-09-14T02:10:54.350Z,12.37
2022-09-14T02:13:21.082Z,13.40
2022-09-14T02:15:47.784Z,12.97
2022-09-14T02:18:14.448Z,12.30
2022-09-14T02:20:50.804Z,12.70
2022-09-14T02:23:18.476Z,10.80
2022-09-14T02:25:46.312Z,12.20
2022-09-14T02:28:13.364Z,12.10
2022-09-14T02:31:08.010Z,12.00
2022-09-14T02:34:02.499Z,13.10
2022-09-14T02:36:42.198Z,14.00
2022-09-14T02:39:18.696Z,13.07
2022-09-14T02:41:50.576Z,12.20
2022-09-14T02:44:38.925Z,11.63
2022-09-14T02:47:11.345Z,13.30
2022-09-14T02:49:53.052Z,12.47
2022-09-14T02:52:40.559Z,12.70
2022-09-14T02:55:14.371Z,12.97
2022-09-14T02:58:03.252Z,11.47
2022-09-14T03:00:31.900Z,12.23
2022-09-14T03:02:59.034Z,11.60
2022-09-14T03:05:25.739Z,11.80
2022-09-14T03:07:52.358Z,10.70
2022-09-14T03:10:18.985Z,12.30
2022-09-14T03:12:45.602Z,12.47
2022-09-14T03:15:12.305Z,12.97
2022-09-14T03:17:38.997Z,13.77
2022-09-14T03:20:05.936Z,11.93
2022-09-14T03:22:33.052Z,12.47
2022-09-14T03:24:59.651Z,13.17
2022-09-14T03:27:26.228Z,13.63
2022-09-14T03:29:52.835Z,13.00
2022-09-14T03:32:19.433Z,13.90
2022-09-14T03:34:46.045Z,12.47
2022-09-14T03:37:12.673Z,12.80
2022-09-14T03:39:39.306Z,13.80
2022-09-14T03:42:06.048Z,11.83
2022-09-14T03:44:32.725Z,12.93
2022-09-14T03:46:59.612Z,11.80
2022-09-14T03:49:26.422Z,12.70
2022-09-14T03:51:56.506Z,11.47
2022-09-14T03:54:26.712Z,12.93
2022-09-14T03:56:54.293Z,11.80
2022-09-14T03:59:21.681Z,11.40
2022-09-14T04:01:48.326Z,11.40
2022-09-14T04:04:16.243Z,12.17
2022-09-14T04:06:42.967Z,12.03
2022-09-14T04:09:09.781Z,10.43
2022-09-14T04:11:36.363Z,10.80
2022-09-14T04:14:04.467Z,11.20
2022-09-14T04:16:31.677Z,11.17
2022-09-14T04:18:58.519Z,10.97
2022-09-14T04:21:26.049Z,11.60
2022-09-14T04:26:42.268Z,12.10
2022-09-14T04:29:10.891Z,10.47
2022-09-14T04:31:37.587Z,10.83
2022-09-14T04:34:04.758Z,10.93
2022-09-14T04:36:31.587Z,11.00
2022-09-14T04:39:02.678Z,10.23
2022-09-14T04:41:30.668Z,9.50
2022-09-14T04:43:57.877Z,10.27
2022-09-14T04:46:30.517Z,8.80
2022-09-14T04:48:58.187Z,8.90
2022-09-14T04:51:27.806Z,9.37
2022-09-14T04:53:56.471Z,8.70
2022-09-14T04:56:24.268Z,9.47
2022-09-14T04:58:54.270Z,10.90
2022-09-14T05:01:23.433Z,8.23
2022-09-14T05:03:50.649Z,9.20
2022-09-14T05:06:20.327Z,8.33
2022-09-14T05:08:47.423Z,7.83
2022-09-14T05:11:17.572Z,8.07
2022-09-14T05:13:49.557Z,8.93
2022-09-14T05:16:26.320Z,9.10
2022-09-14T05:18:58.470Z,8.57
2022-09-14T05:21:25.603Z,8.13
2022-09-14T05:23:57.046Z,8.47
2022-09-14T05:26:25.783Z,8.40
2022-09-14T05:28:55.152Z,6.40
2022-09-14T05:31:23.973Z,7.73
2022-09-14T05:33:51.341Z,7.67
2022-09-14T05:36:18.444Z,8.87
2022-09-14T05:38:45.296Z,9.20
2022-09-14T05:41:13.756Z,6.50
2022-09-14T05:43:41.084Z,7.50
2022-09-14T05:46:13.343Z,7.90
2022-09-14T05:48:40.128Z,5.57
2022-09-14T05:51:10.400Z,6.33
2022-09-14T05:53:37.040Z,7.10
2022-09-14T05:56:14.076Z,5.13
2022-09-14T05:58:42.168Z,5.40
2022-09-14T06:01:14.822Z,5.23
2022-09-14T06:03:42.604Z,4.70
2022-09-14T06:06:10.791Z,5.07
2022-09-14T06:08:38.192Z,5.37
2022-09-14T06:11:10.216Z,5.23
2022-09-14T06:13:37.046Z,5.70
2022-09-14T06:16:10.426Z,4.17
2022-09-14T06:18:38.085Z,5.13
2022-09-14T06:21:05.872Z,5.50
2022-09-14T06:23:33.055Z,5.30
2022-09-14T06:26:01.835Z,5.03
2022-09-14T06:28:29.256Z,5.07
2022-09-14T06:30:56.633Z,5.33
2022-09-14T06:33:23.823Z,5.07
2022-09-14T06:36:00.582Z,5.23
2022-09-14T06:38:28.231Z,5.00
2022-09-14T06:40:57.007Z,5.17
2022-09-14T06:43:25.394Z,4.50
2022-09-14T06:46:03.425Z,5.23
2022-09-14T06:48:36.234Z,4.77
2022-09-14T06:51:18.726Z,5.60
2022-09-14T06:53:46.391Z,4.20
2022-09-14T06:56:13.729Z,4.60
2022-09-14T06:58:41.881Z,4.80
2022-09-14T07:01:12.607Z,5.00
2022-09-14T07:03:39.752Z,4.37
2022-09-14T07:06:09.353Z,4.53
2022-09-14T07:08:37.453Z,3.90
2022-09-14T07:11:04.997Z,4.13
2022-09-14T07:13:32.040Z,4.20
2022-09-14T07:15:58.682Z,3.77
2022-09-14T07:18:31.798Z,4.27
2022-09-14T07:21:05.978Z,3.63
2022-09-14T07:23:33.789Z,4.03
2022-09-14T07:26:09.500Z,3.07
2022-09-14T07:28:37.393Z,3.87
2022-09-14T07:31:06.444Z,3.50
2022-09-14T07:33:33.517Z,4.03
2022-09-14T07:36:11.155Z,3.80
2022-09-14T07:38:53.744Z,4.00
2022-09-14T07:41:28.799Z,3.70
2022-09-14T07:44:00.088Z,4.00
2022-09-14T07:46:28.516Z,3.40
2022-09-14T07:49:00.348Z,3.90
2022-09-14T07:51:28.623Z,3.93
2022-09-14T07:53:55.567Z,4.03
2022-09-14T07:56:22.557Z,3.97
2022-09-14T07:58:55.473Z,3.50
2022-09-14T08:01:25.575Z,4.17
2022-09-14T08:03:52.576Z,4.90
2022-09-14T08:06:26.175Z,3.80
2022-09-14T08:08:54.954Z,3.43
2022-09-14T08:11:28.107Z,3.80
2022-09-14T08:13:59.482Z,3.07
2022-09-14T08:16:28.842Z,2.97
2022-09-14T08:18:57.788Z,3.70
2022-09-14T08:21:25.671Z,3.23
2022-09-14T08:23:52.598Z,3.50
2022-09-14T08:26:22.110Z,4.23
2022-09-14T08:28:50.517Z,3.77
2022-09-14T08:31:24.850Z,3.53
2022-09-14T08:34:03.501Z,3.13
2022-09-14T08:36:33.268Z,3.70
2022-09-14T08:39:00.698Z,3.33
2022-09-14T08:41:45.600Z,3.67
2022-09-14T08:44:14.942Z,3.43
2022-09-14T08:47:07.726Z,3.43
2022-09-14T08:50:01.383Z,2.80
2022-09-14T08:52:35.412Z,2.90
2022-09-14T08:55:15.604Z,2.73
2022-09-14T08:57:53.832Z,2.47
2022-09-14T09:00:28.786Z,2.43
2022-09-14T09:03:10.343Z,2.47
2022-09-14T09:05:53.604Z,2.43
2022-09-14T09:08:43.549Z,2.43
2022-09-14T09:11:18.577Z,2.30
2022-09-14T09:13:48.425Z,2.27
2022-09-14T09:16:20.083Z,2.00
2022-09-14T09:18:48.875Z,1.77
2022-09-14T09:21:21.941Z,1.97
2022-09-14T09:23:48.595Z,2.10
2022-09-14T09:26:29.722Z,1.90
2022-09-14T09:29:03.717Z,1.63
2022-09-14T09:31:35.919Z,2.07
2022-09-14T09:34:02.749Z,1.70
2022-09-14T09:36:39.111Z,1.73
2022-09-14T09:39:06.663Z,1.73
2022-09-14T09:41:51.245Z,1.70
2022-09-14T09:44:17.921Z,1.57
2022-09-14T09:46:59.607Z,2.40
2022-09-14T09:49:36.945Z,2.20
2022-09-14T09:52:13.915Z,2.23
2022-09-14T09:54:44.011Z,2.10
2022-09-14T09:57:33.046Z,2.13
2022-09-14T10:00:22.895Z,2.27
2022-09-14T10:02:50.385Z,2.07
2022-09-14T10:05:16.932Z,1.70
2022-09-14T10:07:56.212Z,1.90
2022-09-14T10:10:43.405Z,2.07
2022-09-14T10:13:26.131Z,2.03
2022-09-14T10:15:54.021Z,2.20
2022-09-14T10:18:22.201Z,1.97
2022-09-14T10:20:54.805Z,2.17
2022-09-14T10:23:23.929Z,2.20
2022-09-14T10:25:53.336Z,2.40
2022-09-14T10:28:31.941Z,3.27
2022-09-14T10:31:09.093Z,2.33
2022-09-14T10:33:35.943Z,2.37
2022-09-14T10:36:10.490Z,2.10
2022-09-14T10:38:58.505Z,3.43
2022-09-14T10:41:50.111Z,2.60
2022-09-14T10:44:55.121Z,2.60
2022-09-14T10:47:33.268Z,3.07
2022-09-14T10:50:28.181Z,3.17
2022-09-14T10:53:14.589Z,3.13
2022-09-14T10:56:11.515Z,3.07
2022-09-14T10:58:59.771Z,3.40
2022-09-14T11:01:54.553Z,2.87
2022-09-14T11:05:03.049Z,2.93
2022-09-14T11:07:39.192Z,3.13
2022-09-14T11:10:43.847Z,4.00
2022-09-14T11:13:16.333Z,3.20
2022-09-14T11:15:58.292Z,3.33
2022-09-14T11:18:38.496Z,3.20
2022-09-14T11:21:25.952Z,3.07
2022-09-14T11:23:55.634Z,4.10
2022-09-14T11:26:42.178Z,3.60
2022-09-14T11:29:46.527Z,4.20
2022-09-14T11:32:22.492Z,4.70
2022-09-14T11:35:05.803Z,5.40
2022-09-14T11:37:43.081Z,4.30
2022-09-14T11:40:29.591Z,6.00
2022-09-14T11:43:05.874Z,4.97
2022-09-14T11:45:39.661Z,4.70
2022-09-14T11:48:42.297Z,5.20
2022-09-14T11:51:35.932Z,6.07
2022-09-14T11:54:02.543Z,5.80
2022-09-14T11:56:32.069Z,5.87
2022-09-14T11:59:01.500Z,5.37
2022-09-14T12:01:37.500Z,5.37
2022-09-14T12:04:08.936Z,4.13
2022-09-14T12:06:38.680Z,5.27
2022-09-14T12:09:17.508Z,3.33
2022-09-14T12:11:45.061Z,3.33
2022-09-14T12:14:28.648Z,3.37
2022-09-14T12:20:27.000Z,3.97
2022-09-14T12:23:05.650Z,4.07
2022-09-14T12:25:33.945Z,3.77
2022-09-14T12:28:00.673Z,3.90
2022-09-14T12:30:40.922Z,6.10
2022-09-14T12:33:35.102Z,3.63
2022-09-14T12:36:06.688Z,3.10
2022-09-14T12:38:55.070Z,3.40
2022-09-14T12:41:21.643Z,3.20
2022-09-14T12:43:51.552Z,3.10
2022-09-14T12:46:21.434Z,3.30
2022-09-14T12:48:48.270Z,3.47
2022-09-14T12:51:47.604Z,3.43
2022-09-14T12:54:24.187Z,3.20
2022-09-14T12:57:47.091Z,3.10
2022-09-14T13:00:18.192Z,2.50
2022-09-14T13:03:09.842Z,2.10
2022-09-14T13:05:36.597Z,2.53
2022-09-14T13:08:11.351Z,1.97
2022-09-14T13:10:49.041Z,2.00
2022-09-14T13:13:23.951Z,2.93
2022-09-14T13:15:59.585Z,3.00
2022-09-14T13:18:30.948Z,2.40
2022-09-14T13:21:19.417Z,2.77
2022-09-14T13:23:46.672Z,2.90
2022-09-14T13:26:29.692Z,2.77
2022-09-14T13:28:58.537Z,3.17
2022-09-14T13:31:32.922Z,2.80
2022-09-14T13:34:00.439Z,3.10
2022-09-14T13:36:30.971Z,3.30
2022-09-14T13:39:01.452Z,3.60
2022-09-14T13:41:29.559Z,3.40
2022-09-14T13:43:57.781Z,3.13
2022-09-14T13:46:26.513Z,4.07
2022-09-14T13:48:53.933Z,5.30
2022-09-14T13:51:28.656Z,5.50
2022-09-14T13:53:57.852Z,5.37
2022-09-14T13:56:26.574Z,4.40
2022-09-14T13:59:20.507Z,5.10
2022-09-14T14:02:13.840Z,5.77
2022-09-14T14:04:40.465Z,5.33
2022-09-14T14:07:13.648Z,5.50
2022-09-14T14:09:55.924Z,6.60
2022-09-14T14:12:33.453Z,6.70
2022-09-14T14:15:06.614Z,7.13
2022-09-14T14:17:38.516Z,7.13
2022-09-14T14:20:23.980Z,7.37
2022-09-14T14:23:10.803Z,6.93
2022-09-14T14:25:45.653Z,7.20
2022-09-14T14:28:29.176Z,7.50
2022-09-14T14:30:58.020Z,8.43
2022-09-14T14:33:25.324Z,8.93
2022-09-14T14:35:54.452Z,9.60
2022-09-14T14:38:23.765Z,12.13
2022-09-14T14:40:58.175Z,9.20
2022-09-14T14:43:26.099Z,9.03
2022-09-14T14:46:00.551Z,10.10
2022-09-14T14:48:28.640Z,12.30
2022-09-14T14:50:55.706Z,11.07
2022-09-14T14:53:23.809Z,10.50
2022-09-14T14:55:50.711Z,10.80
2022-09-14T14:58:20.229Z,10.83
2022-09-14T15:00:47.773Z,9.80
2022-09-14T15:03:21.341Z,9.00
2022-09-14T15:05:48.959Z,10.93
2022-09-14T15:08:17.608Z,11.27
2022-09-14T15:10:44.401Z,10.90
2022-09-14T15:13:12.326Z,11.03
2022-09-14T15:15:42.848Z,10.20
2022-09-14T15:18:09.797Z,12.00
2022-09-14T15:20:36.763Z,11.50
2022-09-14T15:23:03.536Z,11.53
2022-09-14T15:25:30.249Z,15.30
2022-09-14T15:27:56.953Z,12.17
2022-09-14T15:30:24.658Z,12.23
2022-09-14T15:32:51.303Z,10.87
2022-09-14T15:35:18.429Z,12.03
2022-09-14T15:37:47.254Z,13.47
2022-09-14T15:40:14.523Z,13.83
2022-09-14T15:42:41.224Z,15.40
2022-09-14T15:45:08.873Z,12.67
2022-09-14T15:47:36.571Z,12.40
2022-09-14T15:50:04.505Z,10.17
2022-09-14T15:52:31.291Z,6.83
2022-09-14T15:54:57.879Z,8.30
2022-09-14T15:57:24.503Z,5.87
2022-09-14T15:59:53.959Z,4.47
2022-09-14T16:02:20.734Z,4.70
2022-09-14T16:04:47.499Z,4.77
2022-09-14T16:07:14.320Z,4.20
2022-09-14T16:09:41.829Z,3.70
2022-09-14T16:12:11.055Z,4.20
2022-09-14T16:14:37.935Z,3.87
2022-09-14T16:17:05.469Z,3.83
2022-09-14T16:19:32.275Z,3.20
2022-09-14T16:21:59.438Z,3.30
2022-09-14T16:24:26.388Z,4.37
2022-09-14T16:26:53.976Z,3.30
2022-09-14T16:29:24.018Z,3.43
2022-09-14T16:31:51.125Z,2.73
2022-09-14T16:34:27.293Z,3.27
2022-09-14T16:36:53.922Z,2.83
2022-09-14T16:39:23.774Z,3.10
2022-09-14T16:41:51.032Z,2.70
2022-09-14T16:44:22.850Z,2.57
2022-09-14T16:46:49.905Z,2.47
2022-09-14T16:49:17.488Z,2.60
2022-09-14T16:51:45.379Z,2.40
2022-09-14T16:54:19.997Z,2.10
2022-09-14T16:56:47.469Z,4.03
2022-09-14T16:59:16.541Z,5.10
2022-09-14T17:01:45.697Z,2.57
2022-09-14T17:04:14.867Z,2.30
2022-09-14T17:06:44.234Z,2.70
2022-09-14T17:09:23.344Z,3.10
2022-09-14T17:11:50.061Z,2.87
2022-09-14T17:14:22.375Z,3.20
2022-09-14T17:16:49.188Z,3.07
2022-09-14T17:19:16.402Z,3.43
2022-09-14T17:21:44.754Z,3.10
2022-09-14T17:24:12.341Z,4.20
2022-09-14T17:26:39.020Z,3.13
2022-09-14T17:29:06.746Z,3.50
2022-09-14T17:31:36.195Z,3.50
2022-09-14T17:34:04.714Z,3.70
2022-09-14T17:36:31.959Z,4.60
2022-09-14T17:39:02.224Z,4.20
2022-09-14T17:41:31.497Z,3.77
2022-09-14T17:44:01.242Z,4.60
2022-09-14T17:46:28.234Z,4.17
2022-09-14T17:48:58.987Z,5.10
2022-09-14T17:51:27.898Z,5.30
2022-09-14T17:53:56.367Z,5.63
2022-09-14T17:56:25.388Z,6.23
2022-09-14T17:59:05.519Z,6.60
2022-09-14T18:01:33.264Z,7.60
2022-09-14T18:04:05.698Z,8.37
2022-09-14T18:06:38.393Z,12.07
2022-09-14T18:09:09.634Z,16.00
2022-09-14T18:11:38.437Z,20.23
2022-09-14T18:14:05.615Z,19.27
2022-09-14T18:16:34.593Z,20.70
2022-09-14T18:19:01.589Z,19.87
2022-09-14T18:21:28.333Z,20.63
2022-09-14T18:23:55.417Z,20.40
2022-09-14T18:26:23.219Z,20.80
2022-09-14T18:28:53.459Z,20.10
2022-09-14T18:31:20.180Z,20.70
2022-09-14T18:33:59.242Z,19.17
2022-09-14T18:36:29.050Z,20.23
2022-09-14T18:38:57.061Z,20.70
2022-09-14T18:41:23.749Z,16.93
2022-09-14T18:43:53.228Z,16.83
2022-09-14T18:46:24.448Z,30.00
2022-09-14T18:48:56.700Z,16.47
2022-09-14T18:51:23.529Z,14.60
2022-09-14T18:54:05.595Z,13.27
2022-09-14T18:56:33.811Z,14.00
2022-09-14T18:59:01.749Z,12.67
2022-09-14T19:01:28.600Z,13.20
2022-09-14T19:03:56.037Z,12.97
2022-09-14T19:06:23.043Z,12.83
2022-09-14T19:08:49.921Z,11.90
2022-09-14T19:11:27.487Z,12.80
2022-09-14T19:14:01.968Z,12.10
2022-09-14T19:16:29.536Z,12.13
2022-09-14T19:18:56.547Z,12.73
2022-09-14T19:21:27.249Z,11.93
2022-09-14T19:24:05.501Z,12.10
2022-09-14T19:26:39.984Z,12.50
2022-09-14T19:29:10.024Z,12.13
2022-09-14T19:31:37.734Z,13.37
2022-09-14T19:34:05.107Z,13.30
2022-09-14T19:36:34.779Z,17.80
2022-09-14T19:39:02.580Z,13.93
2022-09-14T19:41:31.314Z,13.73
2022-09-14T19:43:58.395Z,15.03
2022-09-14T19:46:25.404Z,12.20
2022-09-14T19:48:53.218Z,16.70
2022-09-14T19:51:23.314Z,14.37
2022-09-14T19:53:51.604Z,13.10
2022-09-14T19:56:21.128Z,14.27
2022-09-14T19:58:51.037Z,14.43
2022-09-14T20:01:21.517Z,15.10
2022-09-14T20:03:49.795Z,14.57
2022-09-14T20:06:21.009Z,15.97
2022-09-14T20:08:48.911Z,16.77
2022-09-14T20:11:20.009Z,16.90
2022-09-14T20:13:48.339Z,15.93
2022-09-14T20:16:21.214Z,15.50
2022-09-14T20:18:49.731Z,15.60
2022-09-14T20:21:19.560Z,14.90
2022-09-14T20:24:11.529Z,17.60
2022-09-14T20:26:33.230Z,16.10
2022-09-14T20:29:01.201Z,14.60
2022-09-14T20:31:29.160Z,16.90
2022-09-14T20:33:57.168Z,14.80
2022-09-14T20:36:25.267Z,17.83
2022-09-14T20:38:56.810Z,14.53
2022-09-14T20:41:26.197Z,16.30
2022-09-14T20:43:53.876Z,16.90
2022-09-14T20:46:31.539Z,16.17
2022-09-14T20:48:58.691Z,15.17
2022-09-14T20:51:25.722Z,16.23
2022-09-14T20:53:53.013Z,16.27
2022-09-14T20:56:21.971Z,18.20
2022-09-14T20:58:49.449Z,18.13
2022-09-14T21:01:19.146Z,20.10
2022-09-14T21:03:47.275Z,17.40
2022-09-14T21:06:19.808Z,17.63
2022-09-14T21:08:46.986Z,17.50
2022-09-14T21:11:20.259Z,18.03
2022-09-14T21:13:47.353Z,21.03
2022-09-14T21:16:19.766Z,18.93
2022-09-14T21:18:51.549Z,20.87
2022-09-14T21:21:19.578Z,21.47
2022-09-14T21:23:48.597Z,20.77
2022-09-14T21:26:15.743Z,19.70
2022-09-14T21:28:42.713Z,20.27
2022-09-14T21:31:14.509Z,23.87
2022-09-14T21:33:45.501Z,21.70
2022-09-14T21:36:15.659Z,22.17
2022-09-14T21:38:53.421Z,21.60
2022-09-14T21:41:21.584Z,23.57
2022-09-14T21:43:48.380Z,24.07
2022-09-14T21:46:15.783Z,23.67
2022-09-14T21:48:42.473Z,23.50
2022-09-14T21:51:17.019Z,22.77
2022-09-14T21:53:48.660Z,26.03
2022-09-14T21:56:16.972Z,27.70
2022-09-14T21:58:44.522Z,25.93
2022-09-14T22:01:11.860Z,22.83
2022-09-14T22:03:39.048Z,25.33
2022-09-14T22:06:07.619Z,26.37
2022-09-14T22:08:35.429Z,31.47
2022-09-14T22:11:23.829Z,27.70
2022-09-14T22:13:58.868Z,30.40
2022-09-14T22:16:27.575Z,28.00
2022-09-14T22:18:57.017Z,33.03
2022-09-14T22:21:27.047Z,31.73
2022-09-14T22:23:56.096Z,31.97
2022-09-14T22:26:23.850Z,31.83
2022-09-14T22:28:52.104Z,30.10
2022-09-14T22:31:20.502Z,30.23
2022-09-14T22:33:48.014Z,32.73
2022-09-14T22:36:15.319Z,31.83
2022-09-14T22:38:42.059Z,30.60
2022-09-14T22:41:12.258Z,35.17
2022-09-14T22:43:39.936Z,34.60
2022-09-14T22:46:07.878Z,36.03
2022-09-14T22:48:35.104Z,33.03
2022-09-14T22:51:02.022Z,34.97
2022-09-14T22:53:29.759Z,35.07
2022-09-14T22:55:56.617Z,34.10
2022-09-14T22:58:26.035Z,33.10
2022-09-14T23:00:53.424Z,36.00
2022-09-14T23:03:20.332Z,31.90
2022-09-14T23:05:58.962Z,34.17
2022-09-14T23:08:32.812Z,33.30
2022-09-14T23:11:04.531Z,32.20
2022-09-14T23:13:34.602Z,35.93
2022-09-14T23:16:02.519Z,32.50
2022-09-14T23:18:29.619Z,31.53
2022-09-14T23:21:02.204Z,33.37
2022-09-14T23:23:28.818Z,29.30
2022-09-14T23:25:55.470Z,32.13
2022-09-14T23:28:22.051Z,28.80
2022-09-14T23:30:54.834Z,30.10
2022-09-14T23:33:21.598Z,30.30
2022-09-14T23:35:49.192Z,28.47
2022-09-14T23:38:15.963Z,27.90
2022-09-14T23:40:43.502Z,30.97
2022-09-14T23:43:10.611Z,29.90
2022-09-14T23:45:37.590Z,29.83
2022-09-14T23:48:04.301Z,28.43
2022-09-14T23:50:31.824Z,29.37
2022-09-14T23:52:58.448Z,27.50
2022-09-14T23:55:25.280Z,25.93
2022-09-14T23:57:52.401Z,26.50
